createdAt,value
2022-10-11T00:00:40.816Z,66.17
2022-10-11T00:03:34.812Z,66.19
2022-10-11T00:06:09.743Z,66.36
2022-10-11T00:08:43.225Z,66.37
2022-10-11T00:11:16.756Z,66.34
2022-10-11T00:13:50.362Z,66.31
2022-10-11T00:16:24.076Z,66.39
2022-10-11T00:18:57.640Z,66.32
2022-10-11T00:21:31.870Z,66.33
2022-10-11T00:24:05.450Z,66.41
2022-10-11T00:26:41.128Z,66.32
2022-10-11T00:29:16.560Z,66.28
2022-10-11T00:31:49.781Z,66.36
2022-10-11T00:34:23.056Z,66.37
2022-10-11T00:36:56.833Z,66.38
2022-10-11T00:39:30.326Z,66.39
2022-10-11T00:42:03.272Z,66.55
2022-10-11T00:44:36.939Z,66.53
2022-10-11T00:47:14.110Z,66.47
2022-10-11T00:49:51.545Z,66.47
2022-10-11T00:52:31.973Z,66.40
2022-10-11T00:55:07.390Z,66.46
2022-10-11T00:57:44.341Z,66.47
2022-10-11T01:00:18.560Z,66.42
2022-10-11T01:02:52.670Z,66.43
2022-10-11T01:05:30.154Z,66.70
2022-10-11T01:08:04.943Z,66.76
2022-10-11T01:10:38.725Z,66.66
2022-10-11T01:13:21.946Z,66.71
2022-10-11T01:16:02.319Z,66.89
2022-10-11T01:18:44.393Z,66.92
2022-10-11T01:21:28.024Z,66.82
2022-10-11T01:24:21.612Z,66.95
2022-10-11T01:27:27.595Z,66.97
2022-10-11T01:30:08.505Z,66.97
2022-10-11T01:32:49.269Z,67.00
2022-10-11T01:35:27.837Z,66.93
2022-10-11T01:38:10.491Z,66.96
2022-10-11T01:40:51.051Z,66.89
2022-10-11T01:43:25.642Z,66.91
2022-10-11T01:46:03.906Z,66.90
2022-10-11T01:48:48.160Z,66.92
2022-10-11T01:51:24.583Z,67.03
2022-10-11T01:54:21.221Z,66.91
2022-10-11T01:57:20.342Z,67.08
2022-10-11T02:00:03.671Z,66.97
2022-10-11T02:02:55.208Z,67.10
2022-10-11T02:05:37.095Z,67.20
2022-10-11T02:08:17.779Z,67.14
2022-10-11T02:10:56.379Z,67.15
2022-10-11T02:13:34.636Z,67.12
2022-10-11T02:16:13.376Z,67.14
2022-10-11T02:18:51.842Z,67.09
2022-10-11T02:21:26.247Z,67.17
2022-10-11T02:24:04.783Z,67.15
2022-10-11T02:26:41.346Z,67.10
2022-10-11T02:29:16.713Z,67.07
2022-10-11T02:31:51.372Z,67.07
2022-10-11T02:34:28.752Z,67.12
2022-10-11T02:37:07.579Z,67.21
2022-10-11T02:39:41.498Z,66.98
2022-10-11T02:42:20.098Z,67.21
2022-10-11T02:45:01.241Z,67.37
2022-10-11T02:47:35.622Z,67.26
2022-10-11T02:50:12.114Z,67.38
2022-10-11T02:52:45.404Z,67.46
2022-10-11T02:55:19.115Z,67.44
2022-10-11T02:57:52.708Z,67.40
2022-10-11T03:00:26.316Z,67.45
2022-10-11T03:02:59.695Z,67.60
2022-10-11T03:05:37.568Z,67.58
2022-10-11T03:08:12.484Z,67.58
2022-10-11T03:10:46.172Z,67.55
2022-10-11T03:13:19.648Z,67.75
2022-10-11T03:16:07.440Z,67.70
2022-10-11T03:18:41.233Z,67.84
2022-10-11T03:21:15.277Z,67.69
2022-10-11T03:23:48.848Z,67.68
2022-10-11T03:26:21.955Z,67.73
2022-10-11T03:28:55.817Z,67.69
2022-10-11T03:31:29.121Z,67.76
2022-10-11T03:34:02.767Z,67.86
2022-10-11T03:36:36.101Z,67.89
2022-10-11T03:39:09.184Z,68.04
2022-10-11T03:41:42.599Z,67.93
2022-10-11T03:44:15.772Z,68.07
2022-10-11T03:46:49.147Z,68.33
2022-10-11T03:49:22.438Z,68.40
2022-10-11T03:51:56.279Z,68.40
2022-10-11T03:54:29.940Z,68.37
2022-10-11T03:57:03.009Z,68.56
2022-10-11T03:59:36.117Z,68.82
2022-10-11T04:02:10.154Z,69.06
2022-10-11T04:04:43.766Z,69.30
2022-10-11T04:07:17.210Z,69.35
2022-10-11T04:09:50.491Z,69.27
2022-10-11T04:12:23.963Z,69.27
2022-10-11T04:14:57.629Z,69.13
2022-10-11T04:17:31.213Z,69.24
2022-10-11T04:20:04.941Z,69.15
2022-10-11T04:22:38.918Z,69.37
2022-10-11T04:25:12.764Z,69.52
2022-10-11T04:27:46.180Z,69.52
2022-10-11T04:30:20.390Z,69.51
2022-10-11T04:32:53.612Z,69.50
2022-10-11T04:35:26.639Z,69.62
2022-10-11T04:37:59.897Z,69.64
2022-10-11T04:40:33.795Z,69.48
2022-10-11T04:43:07.743Z,69.48
2022-10-11T04:45:41.240Z,69.65
2022-10-11T04:48:15.715Z,69.69
2022-10-11T04:50:49.646Z,69.64
2022-10-11T04:53:22.903Z,69.67
2022-10-11T04:56:04.471Z,69.63
2022-10-11T04:58:38.907Z,69.73
2022-10-11T05:01:12.942Z,69.83
2022-10-11T05:03:46.641Z,70.14
2022-10-11T05:06:20.599Z,70.28
2022-10-11T05:08:53.706Z,70.44
2022-10-11T05:11:28.476Z,70.73
2022-10-11T05:14:01.948Z,70.77
2022-10-11T05:16:35.433Z,70.98
2022-10-11T05:19:09.035Z,71.40
2022-10-11T05:21:42.403Z,71.56
2022-10-11T05:24:16.094Z,71.69
2022-10-11T05:26:50.184Z,71.77
2022-10-11T05:29:23.374Z,71.92
2022-10-11T05:31:56.687Z,71.86
2022-10-11T05:34:29.953Z,71.94
2022-10-11T05:37:03.345Z,72.00
2022-10-11T05:39:37.043Z,71.98
2022-10-11T05:42:10.754Z,72.07
2022-10-11T05:44:44.230Z,72.13
2022-10-11T05:47:17.837Z,72.08
2022-10-11T05:49:51.222Z,72.03
2022-10-11T05:52:24.575Z,71.99
2022-10-11T05:54:58.418Z,71.95
2022-10-11T05:57:32.267Z,71.94
2022-10-11T06:00:06.018Z,71.93
2022-10-11T06:02:46.237Z,72.08
2022-10-11T06:05:20.316Z,72.06
2022-10-11T06:07:53.701Z,72.15
2022-10-11T06:10:27.222Z,71.98
2022-10-11T06:13:00.739Z,71.94
2022-10-11T06:15:34.385Z,71.70
2022-10-11T06:18:08.020Z,71.74
2022-10-11T06:20:41.720Z,72.47
2022-10-11T06:23:15.038Z,72.10
2022-10-11T06:25:57.276Z,70.83
2022-10-11T06:28:31.474Z,69.25
2022-10-11T06:31:07.705Z,68.49
2022-10-11T06:33:41.649Z,68.23
2022-10-11T06:36:17.199Z,68.03
2022-10-11T06:38:53.072Z,67.70
2022-10-11T06:41:28.326Z,67.64
2022-10-11T06:44:02.224Z,67.67
2022-10-11T06:46:35.714Z,67.35
2022-10-11T06:49:09.596Z,67.31
2022-10-11T06:51:42.797Z,66.96
2022-10-11T06:54:16.333Z,66.64
2022-10-11T06:56:49.748Z,66.55
2022-10-11T06:59:23.448Z,66.77
2022-10-11T07:01:57.312Z,66.20
2022-10-11T07:04:34.554Z,65.64
2022-10-11T07:07:07.885Z,65.66
2022-10-11T07:09:41.707Z,65.79
2022-10-11T07:12:16.564Z,65.70
2022-10-11T07:14:50.351Z,65.69
2022-10-11T07:17:23.517Z,65.36
2022-10-11T07:19:56.932Z,65.18
2022-10-11T07:22:30.916Z,65.29
2022-10-11T07:25:04.395Z,65.39
2022-10-11T07:27:37.839Z,65.65
2022-10-11T07:30:13.053Z,65.80
2022-10-11T07:32:46.318Z,65.61
2022-10-11T07:35:20.214Z,65.24
2022-10-11T07:37:53.528Z,65.14
2022-10-11T07:40:27.504Z,65.19
2022-10-11T07:43:01.234Z,64.96
2022-10-11T07:45:34.771Z,65.03
2022-10-11T07:48:09.132Z,64.88
2022-10-11T07:50:42.129Z,64.82
2022-10-11T07:53:15.365Z,64.74
2022-10-11T07:55:48.257Z,64.72
2022-10-11T07:58:21.357Z,64.72
2022-10-11T08:00:57.554Z,64.04
2022-10-11T08:03:30.703Z,63.98
2022-10-11T08:06:09.307Z,63.95
2022-10-11T08:08:42.761Z,64.01
2022-10-11T08:11:23.364Z,64.24
2022-10-11T08:13:57.030Z,64.28
2022-10-11T08:16:30.041Z,64.12
2022-10-11T08:19:03.533Z,64.17
2022-10-11T08:21:37.006Z,64.47
2022-10-11T08:24:10.787Z,64.58
2022-10-11T08:26:44.699Z,64.16
2022-10-11T08:29:17.739Z,64.18
2022-10-11T08:31:50.986Z,64.12
2022-10-11T08:34:24.309Z,63.94
2022-10-11T08:36:57.522Z,64.10
2022-10-11T08:39:30.917Z,64.27
2022-10-11T08:42:08.502Z,64.09
2022-10-11T08:45:09.554Z,64.76
2022-10-11T08:47:41.840Z,64.25
2022-10-11T08:50:22.212Z,63.94
2022-10-11T08:52:58.799Z,63.25
2022-10-11T08:55:39.045Z,62.82
2022-10-11T08:58:17.045Z,62.62
2022-10-11T09:00:54.030Z,62.15
2022-10-11T09:03:36.826Z,61.88
2022-10-11T09:06:20.277Z,61.84
2022-10-11T09:09:04.223Z,61.99
2022-10-11T09:11:50.668Z,61.60
2022-10-11T09:14:47.927Z,61.16
2022-10-11T09:17:33.922Z,61.10
2022-10-11T09:20:24.785Z,60.73
2022-10-11T09:23:04.725Z,60.84
2022-10-11T09:25:47.244Z,60.91
2022-10-11T09:28:31.084Z,61.12
2022-10-11T09:31:04.457Z,61.33
2022-10-11T09:33:43.823Z,61.62
2022-10-11T09:36:18.546Z,61.60
2022-10-11T09:39:02.972Z,61.66
2022-10-11T09:41:44.679Z,61.66
2022-10-11T09:44:24.683Z,61.48
2022-10-11T09:46:59.195Z,61.26
2022-10-11T09:49:38.156Z,61.14
2022-10-11T09:52:19.471Z,60.76
2022-10-11T09:54:56.457Z,60.81
2022-10-11T09:57:32.913Z,60.68
2022-10-11T10:00:20.816Z,60.67
2022-10-11T10:02:56.102Z,60.60
2022-10-11T10:05:31.278Z,60.39
2022-10-11T10:08:23.858Z,60.38
2022-10-11T10:11:06.669Z,60.41
2022-10-11T10:13:51.636Z,60.40
2022-10-11T10:16:28.428Z,60.31
2022-10-11T10:19:03.730Z,60.03
2022-10-11T10:21:45.587Z,59.84
2022-10-11T10:24:32.885Z,59.70
2022-10-11T10:27:22.587Z,59.74
2022-10-11T10:30:18.484Z,59.18
2022-10-11T10:32:57.305Z,58.63
2022-10-11T10:35:37.913Z,58.85
2022-10-11T10:38:19.859Z,58.62
2022-10-11T10:40:58.395Z,57.31
2022-10-11T10:43:35.087Z,57.10
2022-10-11T10:46:29.124Z,56.38
2022-10-11T10:49:34.952Z,54.75
2022-10-11T10:52:26.231Z,53.83
2022-10-11T10:55:05.482Z,53.96
2022-10-11T10:57:48.952Z,57.58
2022-10-11T11:00:23.996Z,55.86
2022-10-11T11:03:02.332Z,53.20
2022-10-11T11:05:43.221Z,51.51
2022-10-11T11:08:28.515Z,48.41
2022-10-11T11:11:14.646Z,48.56
2022-10-11T11:13:56.658Z,48.50
2022-10-11T11:16:36.098Z,46.83
2022-10-11T11:19:22.018Z,45.51
2022-10-11T11:22:02.079Z,44.82
2022-10-11T11:24:48.992Z,44.55
2022-10-11T11:27:33.619Z,44.72
2022-10-11T11:30:11.365Z,44.85
2022-10-11T11:32:55.298Z,45.21
2022-10-11T11:35:33.874Z,45.60
2022-10-11T11:38:12.432Z,44.98
2022-10-11T11:40:50.304Z,44.76
2022-10-11T11:43:29.887Z,44.27
2022-10-11T11:46:06.851Z,44.46
2022-10-11T11:48:40.891Z,44.46
2022-10-11T11:51:19.766Z,44.54
2022-10-11T11:54:03.546Z,45.04
2022-10-11T11:56:51.491Z,45.69
2022-10-11T11:59:34.033Z,46.12
2022-10-11T12:02:30.923Z,46.35
2022-10-11T12:05:06.892Z,47.20
2022-10-11T12:07:53.378Z,47.63
2022-10-11T12:10:33.467Z,46.32
2022-10-11T12:13:18.513Z,45.48
2022-10-11T12:16:12.754Z,45.11
2022-10-11T12:19:01.896Z,45.07
2022-10-11T12:21:36.869Z,45.29
2022-10-11T12:24:24.943Z,45.29
2022-10-11T12:27:01.663Z,44.94
2022-10-11T12:29:51.542Z,44.99
2022-10-11T12:32:54.125Z,45.28
2022-10-11T12:36:07.382Z,44.83
2022-10-11T12:38:42.794Z,42.77
2022-10-11T12:41:40.631Z,42.05
2022-10-11T12:44:25.048Z,41.64
2022-10-11T12:47:34.321Z,40.77
2022-10-11T12:50:18.740Z,39.87
2022-10-11T12:53:02.462Z,39.37
2022-10-11T12:55:48.469Z,40.51
2022-10-11T12:58:39.007Z,40.52
2022-10-11T13:01:35.206Z,39.03
2022-10-11T13:04:12.675Z,38.98
2022-10-11T13:06:51.755Z,39.05
2022-10-11T13:09:31.924Z,39.42
2022-10-11T13:12:10.377Z,39.36
2022-10-11T13:14:44.809Z,39.63
2022-10-11T13:17:26.436Z,40.16
2022-10-11T13:20:08.099Z,40.56
2022-10-11T13:22:43.524Z,40.56
2022-10-11T13:25:20.759Z,40.28
2022-10-11T13:27:57.034Z,39.36
2022-10-11T13:30:34.447Z,39.15
2022-10-11T13:33:17.341Z,39.43
2022-10-11T13:35:51.599Z,39.54
2022-10-11T13:38:29.012Z,39.70
2022-10-11T13:41:06.595Z,39.62
2022-10-11T13:43:41.814Z,39.66
2022-10-11T13:46:22.095Z,40.09
2022-10-11T13:49:07.331Z,40.56
2022-10-11T13:51:41.308Z,40.71
2022-10-11T13:54:14.813Z,41.41
2022-10-11T13:56:53.342Z,41.74
2022-10-11T13:59:28.917Z,41.83
2022-10-11T14:02:04.764Z,41.87
2022-10-11T14:04:44.354Z,42.06
2022-10-11T14:07:26.980Z,42.42
2022-10-11T14:10:00.456Z,42.67
2022-10-11T14:12:38.807Z,42.99
2022-10-11T14:15:31.225Z,43.18
2022-10-11T14:18:25.295Z,43.33
2022-10-11T14:20:58.336Z,43.68
2022-10-11T14:23:32.573Z,43.85
2022-10-11T14:26:06.669Z,44.08
2022-10-11T14:28:40.677Z,44.28
2022-10-11T14:31:14.825Z,44.55
2022-10-11T14:33:48.243Z,44.86
2022-10-11T14:36:23.233Z,45.12
2022-10-11T14:38:57.082Z,45.28
2022-10-11T14:41:30.306Z,45.41
2022-10-11T14:44:04.052Z,45.65
2022-10-11T14:46:38.908Z,45.80
2022-10-11T14:49:18.813Z,45.83
2022-10-11T14:51:53.787Z,45.99
2022-10-11T14:54:31.329Z,46.16
2022-10-11T14:57:07.158Z,46.22
2022-10-11T14:59:40.677Z,46.36
2022-10-11T15:02:14.851Z,46.42
2022-10-11T15:04:49.158Z,46.58
2022-10-11T15:07:22.402Z,46.77
2022-10-11T15:09:55.792Z,46.93
2022-10-11T15:12:29.779Z,47.15
2022-10-11T15:15:04.722Z,47.24
2022-10-11T15:17:38.104Z,47.44
2022-10-11T15:20:20.355Z,47.71
2022-10-11T15:22:53.927Z,47.82
2022-10-11T15:25:29.239Z,47.76
2022-10-11T15:28:04.475Z,48.10
2022-10-11T15:30:41.711Z,48.25
2022-10-11T15:33:16.039Z,48.51
2022-10-11T15:35:49.266Z,48.70
2022-10-11T15:38:24.416Z,48.91
2022-10-11T15:40:59.613Z,48.91
2022-10-11T15:43:33.147Z,49.03
2022-10-11T15:46:07.281Z,49.13
2022-10-11T15:48:40.616Z,49.42
2022-10-11T15:51:13.714Z,49.70
2022-10-11T15:53:47.379Z,49.94
2022-10-11T15:56:21.051Z,50.17
2022-10-11T15:58:54.630Z,50.29
2022-10-11T16:01:28.610Z,50.63
2022-10-11T16:04:02.483Z,50.91
2022-10-11T16:06:36.021Z,50.94
2022-10-11T16:09:09.792Z,51.37
2022-10-11T16:11:43.147Z,51.49
2022-10-11T16:14:16.912Z,51.63
2022-10-11T16:16:50.620Z,51.82
2022-10-11T16:19:24.005Z,52.01
2022-10-11T16:21:57.602Z,52.25
2022-10-11T16:24:31.198Z,52.42
2022-10-11T16:27:04.501Z,52.54
2022-10-11T16:29:37.674Z,52.59
2022-10-11T16:32:11.353Z,52.94
2022-10-11T16:34:44.941Z,53.08
2022-10-11T16:37:18.359Z,53.06
2022-10-11T16:39:52.264Z,53.28
2022-10-11T16:42:25.642Z,53.39
2022-10-11T16:44:58.937Z,53.42
2022-10-11T16:47:33.105Z,53.32
2022-10-11T16:50:07.524Z,53.21
2022-10-11T16:52:41.461Z,53.17
2022-10-11T16:55:14.966Z,53.01
2022-10-11T16:57:48.130Z,53.10
2022-10-11T17:00:22.182Z,53.14
2022-10-11T17:02:55.788Z,53.12
2022-10-11T17:05:29.477Z,53.22
2022-10-11T17:08:03.309Z,53.19
2022-10-11T17:10:40.870Z,53.15
2022-10-11T17:13:14.401Z,53.32
2022-10-11T17:15:48.309Z,53.45
2022-10-11T17:18:21.845Z,53.45
2022-10-11T17:21:04.339Z,53.45
2022-10-11T17:23:38.183Z,53.52
2022-10-11T17:26:16.970Z,53.63
2022-10-11T17:28:51.165Z,53.68
2022-10-11T17:31:24.865Z,53.78
2022-10-11T17:33:59.350Z,53.85
2022-10-11T17:36:36.612Z,53.97
2022-10-11T17:39:12.600Z,53.99
2022-10-11T17:41:47.057Z,54.06
2022-10-11T17:44:22.063Z,54.25
2022-10-11T17:46:56.127Z,54.53
2022-10-11T17:49:30.499Z,54.64
2022-10-11T17:52:04.413Z,54.71
2022-10-11T17:54:41.092Z,54.79
2022-10-11T17:57:15.782Z,55.07
2022-10-11T17:59:50.449Z,55.07
2022-10-11T18:02:23.833Z,55.22
2022-10-11T18:04:57.685Z,55.41
2022-10-11T18:07:34.851Z,55.54
2022-10-11T18:10:09.937Z,55.60
2022-10-11T18:12:43.660Z,55.74
2022-10-11T18:15:18.089Z,55.91
2022-10-11T18:17:51.783Z,55.92
2022-10-11T18:20:25.152Z,56.09
2022-10-11T18:22:59.044Z,56.29
2022-10-11T18:25:34.257Z,56.37
2022-10-11T18:28:11.630Z,56.18
2022-10-11T18:30:48.285Z,56.20
2022-10-11T18:33:22.148Z,56.40
2022-10-11T18:36:03.646Z,56.46
2022-10-11T18:38:41.105Z,56.62
2022-10-11T18:41:16.897Z,56.51
2022-10-11T18:43:55.854Z,56.65
2022-10-11T18:46:30.022Z,56.79
2022-10-11T18:49:05.576Z,56.88
2022-10-11T18:51:40.978Z,56.96
2022-10-11T18:54:20.244Z,57.05
2022-10-11T18:56:57.320Z,57.24
2022-10-11T18:59:30.787Z,57.29
2022-10-11T19:02:05.751Z,57.22
2022-10-11T19:04:40.463Z,57.41
2022-10-11T19:07:14.313Z,57.54
2022-10-11T19:09:48.133Z,57.56
2022-10-11T19:12:21.671Z,57.73
2022-10-11T19:14:55.093Z,57.75
2022-10-11T19:17:29.225Z,57.79
2022-10-11T19:20:03.362Z,57.92
2022-10-11T19:22:36.835Z,57.93
2022-10-11T19:25:13.260Z,57.79
2022-10-11T19:27:47.569Z,57.84
2022-10-11T19:30:22.185Z,57.78
2022-10-11T19:32:55.456Z,57.83
2022-10-11T19:35:28.602Z,57.96
2022-10-11T19:38:02.824Z,58.08
2022-10-11T19:40:39.776Z,58.17
2022-10-11T19:43:14.034Z,58.25
2022-10-11T19:45:48.320Z,58.31
2022-10-11T19:48:22.132Z,58.40
2022-10-11T19:51:02.592Z,58.58
2022-10-11T19:53:36.158Z,58.67
2022-10-11T19:56:12.269Z,58.74
2022-10-11T19:58:46.742Z,58.92
2022-10-11T20:01:22.286Z,59.03
2022-10-11T20:03:59.559Z,59.02
2022-10-11T20:06:38.312Z,59.09
2022-10-11T20:09:29.028Z,59.08
2022-10-11T20:12:04.589Z,59.01
2022-10-11T20:14:39.160Z,58.89
2022-10-11T20:17:12.534Z,59.03
2022-10-11T20:19:46.528Z,58.97
2022-10-11T20:22:20.248Z,59.04
2022-10-11T20:24:54.408Z,59.12
2022-10-11T20:27:27.766Z,59.12
2022-10-11T20:30:01.222Z,59.22
2022-10-11T20:32:34.690Z,59.42
2022-10-11T20:35:09.500Z,59.51
2022-10-11T20:37:42.828Z,59.71
2022-10-11T20:40:17.611Z,59.84
2022-10-11T20:42:51.816Z,59.95
2022-10-11T20:45:25.624Z,60.01
2022-10-11T20:47:59.280Z,60.00
2022-10-11T20:50:32.734Z,60.18
2022-10-11T20:53:06.255Z,60.03
2022-10-11T20:55:40.220Z,59.87
2022-10-11T20:58:13.949Z,59.98
2022-10-11T21:00:47.993Z,59.94
2022-10-11T21:03:21.448Z,60.04
2022-10-11T21:06:02.117Z,60.10
2022-10-11T21:08:36.028Z,60.17
2022-10-11T21:11:10.606Z,60.39
2022-10-11T21:13:44.030Z,60.57
2022-10-11T21:16:19.331Z,60.57
2022-10-11T21:18:56.531Z,60.65
2022-10-11T21:21:32.318Z,60.70
2022-10-11T21:24:05.918Z,60.64
2022-10-11T21:26:39.311Z,60.69
2022-10-11T21:29:12.890Z,60.86
2022-10-11T21:31:45.981Z,60.93
2022-10-11T21:34:19.684Z,60.93
2022-10-11T21:36:53.146Z,60.92
2022-10-11T21:39:26.704Z,60.97
2022-10-11T21:41:59.874Z,61.11
2022-10-11T21:44:36.352Z,61.17
2022-10-11T21:47:09.622Z,61.16
2022-10-11T21:49:43.129Z,61.28
2022-10-11T21:52:16.851Z,61.46
2022-10-11T21:54:50.269Z,61.39
2022-10-11T21:57:23.445Z,61.36
2022-10-11T21:59:57.149Z,61.53
2022-10-11T22:02:31.142Z,61.50
2022-10-11T22:05:04.462Z,61.55
2022-10-11T22:07:37.653Z,61.71
2022-10-11T22:10:11.301Z,61.86
2022-10-11T22:12:45.582Z,61.86
2022-10-11T22:15:19.132Z,61.76
2022-10-11T22:17:52.592Z,61.72
2022-10-11T22:20:25.860Z,61.88
2022-10-11T22:22:59.233Z,62.13
2022-10-11T22:25:32.569Z,62.24
2022-10-11T22:28:06.276Z,62.43
2022-10-11T22:30:39.734Z,62.36
2022-10-11T22:33:13.348Z,62.25
2022-10-11T22:35:46.681Z,62.26
2022-10-11T22:38:19.974Z,62.23
2022-10-11T22:40:54.081Z,62.33
2022-10-11T22:43:27.735Z,62.31
2022-10-11T22:46:01.481Z,62.42
2022-10-11T22:48:34.834Z,62.46
2022-10-11T22:51:08.645Z,62.58
2022-10-11T22:53:42.102Z,62.64
2022-10-11T22:56:15.703Z,62.70
2022-10-11T22:58:49.034Z,62.84
2022-10-11T23:01:22.635Z,62.78
2022-10-11T23:03:56.746Z,62.83
2022-10-11T23:06:29.919Z,63.03
2022-10-11T23:09:03.876Z,63.17
2022-10-11T23:11:37.384Z,63.15
2022-10-11T23:14:12.161Z,63.13
2022-10-11T23:16:45.785Z,63.11
2022-10-11T23:19:19.758Z,63.03
2022-10-11T23:21:53.413Z,62.99
2022-10-11T23:24:26.635Z,63.05
2022-10-11T23:27:00.313Z,63.12
2022-10-11T23:29:35.201Z,63.22
2022-10-11T23:32:08.393Z,63.27
2022-10-11T23:34:41.654Z,63.41
2022-10-11T23:37:14.822Z,63.37
2022-10-11T23:39:48.025Z,63.50
2022-10-11T23:42:21.269Z,63.38
2022-10-11T23:44:54.911Z,63.33
2022-10-11T23:47:28.441Z,63.52
2022-10-11T23:50:02.093Z,63.43
2022-10-11T23:52:35.710Z,63.46
2022-10-11T23:55:10.098Z,63.44
2022-10-11T23:57:43.227Z,63.46
